Time;durP1;ratioP1;P1;durP2;ratioP2;P2;SDS_P1;SDS_P2;PMS_P1;PMS_P2;Temp;Humidity;BMP_temperature;BMP_pressure;BME280_temperature;BME280_humidity;BME280_pressure;Samples;Min_cycle;Max_cycle;Signal;HPM_P1;HPM_P2
2023/01/06 00:02:03;;;;;;;1.02;0.98;;;16.80;57.20;;;;;;5063306;28;45172;-73
2023/01/06 00:04:31;;;;;;;0.85;0.80;;;16.70;57.10;;;;;;5063717;27;45244;-72
2023/01/06 00:06:57;;;;;;;1.52;0.93;;;16.70;57.70;;;;;;5063898;28;45450;-73
2023/01/06 00:09:26;;;;;;;0.80;0.80;;;16.70;57.10;;;;;;5062651;28;45512;-73
2023/01/06 00:11:52;;;;;;;0.80;0.80;;;16.70;57.10;;;;;;5063021;28;45210;-73
2023/01/06 00:14:19;;;;;;;0.93;0.85;;;16.70;57.10;;;;;;5063468;28;45238;-72
2023/01/06 00:16:46;;;;;;;1.35;0.82;;;16.70;57.10;;;;;;5063504;27;45650;-72
2023/01/06 00:19:13;;;;;;;1.67;0.80;;;16.60;57.10;;;;;;5063406;28;45374;-72
2023/01/06 00:21:41;;;;;;;0.80;0.80;;;16.60;57.10;;;;;;5063156;28;45282;-74
2023/01/06 00:24:08;;;;;;;0.85;0.85;;;16.60;57.10;;;;;;5063234;27;45326;-74
2023/01/06 00:26:36;;;;;;;1.30;1.00;;;16.60;57.10;;;;;;5063381;28;45654;-74
2023/01/06 00:29:03;;;;;;;0.70;0.70;;;16.60;57.10;;;;;;5062857;28;45459;-73
2023/01/06 00:31:30;;;;;;;0.80;0.80;;;16.60;57.10;;;;;;5062887;28;45289;-74
2023/01/06 00:33:57;;;;;;;0.80;0.60;;;16.60;57.10;;;;;;5063002;27;45366;-73
2023/01/06 00:36:24;;;;;;;0.90;0.90;;;16.60;57.10;;;;;;5062903;28;45418;-74
2023/01/06 00:38:51;;;;;;;0.63;0.60;;;16.50;57.00;;;;;;5062810;28;45616;-74
2023/01/06 00:44:03;;;;;;;1.38;1.00;;;16.50;57.00;;;;;;5060394;28;45249;-73
2023/01/06 00:46:32;;;;;;;1.10;1.00;;;16.50;57.00;;;;;;5063024;28;45212;-73
2023/01/06 00:49:00;;;;;;;0.90;0.90;;;16.50;57.00;;;;;;5062336;28;46852;-74
2023/01/06 00:51:26;;;;;;;0.80;0.80;;;16.50;56.90;;;;;;5062771;28;45227;-73
2023/01/06 00:53:53;;;;;;;0.93;0.90;;;16.60;56.90;;;;;;5062787;27;45298;-73
2023/01/06 00:56:20;;;;;;;0.88;0.80;;;16.60;56.70;;;;;;5062861;28;45281;-73
2023/01/06 00:58:47;;;;;;;1.33;0.80;;;16.60;56.50;;;;;;5061715;28;46728;-73
2023/01/06 01:01:15;;;;;;;0.70;0.70;;;16.70;56.40;;;;;;5062426;28;45184;-73
2023/01/06 01:03:42;;;;;;;0.80;0.80;;;16.70;56.30;;;;;;5063528;28;45308;-74
2023/01/06 01:06:09;;;;;;;0.82;0.80;;;16.70;56.20;;;;;;5066191;27;45278;-74
2023/01/06 01:08:36;;;;;;;0.80;0.80;;;16.70;56.10;;;;;;5065631;28;47630;-74
2023/01/06 01:11:03;;;;;;;1.00;0.90;;;16.70;56.10;;;;;;5062935;28;45381;-73
2023/01/06 01:13:30;;;;;;;0.80;0.80;;;16.70;56.00;;;;;;5065851;28;45260;-73
2023/01/06 01:15:57;;;;;;;1.08;0.95;;;16.70;56.10;;;;;;5065861;28;45184;-73
2023/01/06 01:18:25;;;;;;;1.10;1.02;;;16.70;56.10;;;;;;5065327;28;46359;-73
2023/01/06 01:20:52;;;;;;;0.68;0.68;;;16.60;56.10;;;;;;5065528;27;45297;-73
2023/01/06 01:23:19;;;;;;;0.90;0.90;;;16.60;56.10;;;;;;5065500;28;45287;-73
2023/01/06 01:25:45;;;;;;;1.13;0.70;;;16.60;56.10;;;;;;5065841;28;45325;-73
2023/01/06 01:28:12;;;;;;;0.70;0.70;;;16.60;56.10;;;;;;5065058;28;45290;-74
2023/01/06 01:30:39;;;;;;;0.80;0.80;;;16.60;56.10;;;;;;5065375;27;45407;-74
2023/01/06 01:33:06;;;;;;;0.80;0.80;;;16.50;56.10;;;;;;5065458;28;45312;-73
2023/01/06 01:35:34;;;;;;;0.70;0.70;;;16.50;56.10;;;;;;5065622;28;45386;-73
2023/01/06 01:38:01;;;;;;;0.70;0.70;;;16.50;56.10;;;;;;5065358;27;45243;-73
2023/01/06 01:40:27;;;;;;;0.80;0.80;;;16.50;56.20;;;;;;5065196;28;45197;-72
2023/01/06 01:42:54;;;;;;;0.90;0.90;;;16.50;56.20;;;;;;5064684;28;45285;-73
2023/01/06 01:45:23;;;;;;;0.85;0.80;;;16.50;56.20;;;;;;5065619;28;45302;-73
2023/01/06 01:47:51;;;;;;;0.77;0.70;;;16.50;56.80;;;;;;5065188;28;45374;-73
2023/01/06 01:50:28;;;;;;;0.73;0.73;;;16.50;56.20;;;;;;5065046;28;45266;-73
2023/01/06 01:52:57;;;;;;;0.80;0.80;;;16.40;56.20;;;;;;5065222;28;45272;-73
2023/01/06 01:55:24;;;;;;;0.68;0.68;;;16.40;56.20;;;;;;5065394;27;45359;-73
2023/01/06 01:57:53;;;;;;;0.68;0.68;;;16.40;56.20;;;;;;5065023;28;46371;-73
2023/01/06 02:00:20;;;;;;;1.15;0.98;;;16.40;56.20;;;;;;5065107;27;45308;-73
2023/01/06 02:02:46;;;;;;;0.82;0.70;;;16.40;56.20;;;;;;5065118;28;45218;-73
2023/01/06 02:05:15;;;;;;;0.80;0.80;;;16.40;56.20;;;;;;5065218;28;45405;-73
2023/01/06 02:07:42;;;;;;;0.70;0.70;;;16.40;56.20;;;;;;5064875;28;46622;-73
2023/01/06 02:10:12;;;;;;;0.80;0.80;;;16.40;56.20;;;;;;5064776;28;45222;-73
2023/01/06 02:12:39;;;;;;;0.50;0.50;;;16.40;56.20;;;;;;5065045;28;45350;-73
2023/01/06 02:15:15;;;;;;;0.70;0.70;;;16.30;56.20;;;;;;5064347;27;45267;-73
2023/01/06 02:18:12;;;;;;;0.63;0.63;;;16.30;56.20;;;;;;5064800;28;48333;-73
2023/01/06 02:21:04;;;;;;;0.60;0.60;;;16.30;56.20;;;;;;5064659;28;45162;-73
2023/01/06 02:24:03;;;;;;;0.57;0.57;;;16.30;56.30;;;;;;5064528;28;45271;-73
2023/01/06 02:26:49;;;;;;;0.65;0.65;;;16.30;56.20;;;;;;5050911;27;45520;-73
2023/01/06 02:30:13;;;;;;;0.73;0.73;;;16.30;56.80;;;;;;5064553;28;46394;-73
2023/01/06 02:32:54;;;;;;;0.60;0.60;;;16.30;56.30;;;;;;4989252;28;46768;-73
2023/01/06 02:35:40;;;;;;;0.60;0.60;;;16.30;56.30;;;;;;5064759;28;45140;-73
2023/01/06 02:38:12;;;;;;;0.93;0.75;;;16.20;56.20;;;;;;5064909;28;45445;-73
2023/01/06 02:40:54;;;;;;;1.40;0.80;;;16.20;56.20;;;;;;5064548;28;45488;-73
2023/01/06 02:43:25;;;;;;;0.77;0.70;;;16.20;56.30;;;;;;5064112;28;45296;-73
2023/01/06 02:45:55;;;;;;;0.82;0.60;;;16.20;56.30;;;;;;5064832;28;45211;-73
2023/01/06 02:48:27;;;;;;;0.70;0.70;;;16.20;56.30;;;;;;5064594;27;45484;-73
2023/01/06 02:50:56;;;;;;;0.60;0.60;;;16.20;56.30;;;;;;5064299;28;45524;-73
2023/01/06 02:53:24;;;;;;;0.68;0.68;;;16.20;56.30;;;;;;5064197;27;45341;-73
2023/01/06 02:55:51;;;;;;;0.60;0.60;;;16.20;56.30;;;;;;5063772;28;45211;-73
2023/01/06 02:58:23;;;;;;;0.80;0.80;;;16.20;56.30;;;;;;5064391;27;45390;-73
2023/01/06 03:00:51;;;;;;;0.75;0.50;;;16.10;56.30;;;;;;5064072;28;45215;-73
2023/01/06 03:03:20;;;;;;;0.63;0.63;;;16.20;56.30;;;;;;5064103;27;45197;-73
2023/01/06 03:05:51;;;;;;;0.60;0.60;;;16.20;56.20;;;;;;5064469;27;45284;-73
2023/01/06 03:08:18;;;;;;;0.70;0.70;;;16.20;56.10;;;;;;5064629;28;45220;-73
2023/01/06 03:10:45;;;;;;;0.60;0.60;;;16.30;55.90;;;;;;5064189;27;46729;-73
2023/01/06 03:13:14;;;;;;;0.70;0.63;;;16.30;55.80;;;;;;5063971;28;45322;-73
2023/01/06 03:15:41;;;;;;;0.77;0.65;;;16.40;55.70;;;;;;5064301;28;45271;-73
2023/01/06 03:18:08;;;;;;;0.82;0.60;;;16.40;55.50;;;;;;5064260;28;45173;-73
2023/01/06 03:20:35;;;;;;;0.80;0.60;;;16.50;55.40;;;;;;5064005;28;46779;-73
2023/01/06 03:23:03;;;;;;;0.70;0.70;;;16.50;55.30;;;;;;5064023;28;45416;-73
2023/01/06 03:25:30;;;;;;;0.60;0.60;;;16.50;55.10;;;;;;5064140;28;45245;-74
2023/01/06 03:27:56;;;;;;;0.50;0.50;;;16.50;55.10;;;;;;5062451;28;45191;-73
2023/01/06 03:30:23;;;;;;;0.60;0.60;;;16.50;55.10;;;;;;5063691;28;45510;-73
2023/01/06 03:32:53;;;;;;;0.60;0.60;;;16.50;55.10;;;;;;5063922;28;45303;-74
2023/01/06 03:35:28;;;;;;;0.70;0.70;;;16.50;55.10;;;;;;5064032;28;45185;-73
2023/01/06 03:37:58;;;;;;;0.50;0.50;;;16.50;55.10;;;;;;5064232;27;45343;-73
2023/01/06 03:40:30;;;;;;;0.50;0.50;;;16.40;55.10;;;;;;5063659;28;46989;-73
2023/01/06 03:43:11;;;;;;;0.50;0.50;;;16.40;55.10;;;;;;5063724;28;45213;-73
2023/01/06 03:45:49;;;;;;;0.40;0.40;;;16.40;55.10;;;;;;5063757;27;45240;-73
2023/01/06 03:48:19;;;;;;;0.98;0.50;;;16.40;55.20;;;;;;5064015;27;45260;-73
2023/01/06 03:50:48;;;;;;;0.60;0.60;;;16.40;55.20;;;;;;5063623;28;45443;-73
2023/01/06 03:53:23;;;;;;;0.57;0.57;;;16.40;55.20;;;;;;5063492;28;45397;-73
2023/01/06 03:55:53;;;;;;;0.60;0.60;;;16.40;55.20;;;;;;5063730;28;45227;-74
2023/01/06 03:58:20;;;;;;;0.70;0.70;;;16.30;55.20;;;;;;5063822;28;45197;-73
2023/01/06 04:00:47;;;;;;;0.52;0.52;;;16.30;55.30;;;;;;5063229;28;46902;-72
2023/01/06 04:03:14;;;;;;;0.50;0.50;;;16.30;55.30;;;;;;5062692;27;45315;-73
2023/01/06 04:05:40;;;;;;;0.63;0.43;;;16.30;55.30;;;;;;5063492;28;45209;-73
2023/01/06 04:08:07;;;;;;;0.52;0.52;;;16.30;55.30;;;;;;5063755;28;45193;-74
2023/01/06 04:10:34;;;;;;;0.77;0.60;;;16.30;55.40;;;;;;5063146;28;45778;-73
2023/01/06 04:13:01;;;;;;;0.73;0.52;;;16.30;55.40;;;;;;5063118;28;45404;-73
2023/01/06 04:15:29;;;;;;;0.50;0.50;;;16.30;55.40;;;;;;5063402;28;45291;-73
2023/01/06 04:17:56;;;;;;;0.50;0.50;;;16.20;55.30;;;;;;5063549;28;45227;-73
2023/01/06 04:20:24;;;;;;;0.98;0.63;;;16.20;55.40;;;;;;5063128;28;45206;-73
2023/01/06 04:22:53;;;;;;;0.88;0.52;;;16.20;55.40;;;;;;5063215;28;45350;-73
2023/01/06 04:25:19;;;;;;;1.23;0.50;;;16.20;55.40;;;;;;5063114;28;45300;-73
2023/01/06 04:27:46;;;;;;;0.80;0.80;;;16.20;55.50;;;;;;5062918;28;45562;-73
2023/01/06 04:30:14;;;;;;;0.50;0.50;;;16.20;55.50;;;;;;5062851;27;47568;-73
2023/01/06 04:32:42;;;;;;;0.50;0.50;;;16.10;55.50;;;;;;5062859;28;45239;-73
2023/01/06 04:35:09;;;;;;;0.60;0.60;;;16.10;55.50;;;;;;5063168;28;45294;-73
2023/01/06 04:37:36;;;;;;;0.50;0.50;;;16.10;55.50;;;;;;5063227;28;45181;-73
2023/01/06 04:40:04;;;;;;;0.47;0.47;;;16.10;55.50;;;;;;5065406;28;45246;-74
2023/01/06 04:43:03;;;;;;;0.50;0.50;;;16.10;55.50;;;;;;5065995;27;45177;-73
2023/01/06 04:45:19;;;;;;;0.63;0.63;;;16.10;55.60;;;;;;5065812;27;45287;-73
2023/01/06 04:47:46;;;;;;;0.52;0.52;;;16.10;55.60;;;;;;5066265;28;45234;-73
2023/01/06 04:50:13;;;;;;;0.45;0.45;;;16.10;55.60;;;;;;5065783;28;46725;-74
2023/01/06 04:52:39;;;;;;;0.32;0.32;;;16.00;55.60;;;;;;5065096;28;45197;-73
2023/01/06 04:55:07;;;;;;;0.50;0.40;;;16.00;55.60;;;;;;5065933;28;45257;-73
2023/01/06 04:57:34;;;;;;;0.50;0.50;;;16.00;55.60;;;;;;5066002;27;45285;-73
2023/01/06 05:00:01;;;;;;;0.30;0.30;;;16.00;55.70;;;;;;5065801;27;47323;-73
2023/01/06 05:02:29;;;;;;;0.43;0.43;;;16.00;55.60;;;;;;5065569;28;45121;-73
2023/01/06 05:04:56;;;;;;;0.40;0.40;;;16.10;55.50;;;;;;5066122;28;45213;-74
2023/01/06 05:07:22;;;;;;;0.50;0.40;;;16.10;55.40;;;;;;5065972;28;45211;-73
2023/01/06 05:09:49;;;;;;;0.38;0.38;;;16.20;55.30;;;;;;5065342;28;45537;-73
2023/01/06 05:12:16;;;;;;;0.40;0.40;;;16.20;55.10;;;;;;5065506;28;45320;-73
2023/01/06 05:14:43;;;;;;;0.52;0.50;;;16.30;55.10;;;;;;5065733;27;45241;-73
2023/01/06 05:17:10;;;;;;;0.35;0.30;;;16.30;54.90;;;;;;5065936;28;45421;-73
2023/01/06 05:19:40;;;;;;;0.40;0.40;;;16.30;54.80;;;;;;5065338;28;46400;-73
2023/01/06 05:22:07;;;;;;;0.43;0.43;;;16.30;54.70;;;;;;5065414;28;45249;-73
2023/01/06 05:24:34;;;;;;;0.28;0.28;;;16.40;54.70;;;;;;5065579;28;45221;-73
2023/01/06 05:27:00;;;;;;;0.50;0.50;;;16.40;54.60;;;;;;5063301;28;45231;-73
2023/01/06 05:29:27;;;;;;;0.60;0.50;;;16.40;54.60;;;;;;5065238;28;45368;-73
2023/01/06 05:31:54;;;;;;;0.30;0.30;;;16.30;54.60;;;;;;5065138;28;45220;-73
2023/01/06 05:34:21;;;;;;;0.50;0.50;;;16.30;54.70;;;;;;5065465;28;45255;-72
2023/01/06 05:36:49;;;;;;;0.30;0.30;;;16.30;54.70;;;;;;5065007;28;45156;-73
2023/01/06 05:39:16;;;;;;;1.55;0.50;;;16.30;54.80;;;;;;5065108;28;46387;-73
2023/01/06 05:41:43;;;;;;;0.38;0.38;;;16.30;54.80;;;;;;5065165;28;45215;-73
2023/01/06 05:44:09;;;;;;;0.38;0.38;;;16.30;54.80;;;;;;5065386;28;45507;-73
2023/01/06 05:46:36;;;;;;;0.65;0.65;;;16.30;54.80;;;;;;5065567;28;45389;-73
2023/01/06 05:49:03;;;;;;;0.40;0.40;;;16.30;54.90;;;;;;5065074;28;46756;-73
2023/01/06 05:51:30;;;;;;;0.50;0.50;;;16.30;54.90;;;;;;5064190;28;45336;-73
2023/01/06 05:53:58;;;;;;;0.50;0.50;;;16.30;54.90;;;;;;5065164;28;45436;-73
2023/01/06 05:56:25;;;;;;;0.50;0.50;;;16.30;55.00;;;;;;5065281;28;45385;-73
2023/01/06 05:58:52;;;;;;;0.40;0.40;;;16.20;55.00;;;;;;5064803;28;45208;-73
2023/01/06 06:01:20;;;;;;;0.60;0.43;;;16.20;55.00;;;;;;5065155;28;45229;-73
2023/01/06 06:03:47;;;;;;;0.30;0.30;;;16.20;55.00;;;;;;5064943;27;45343;-73
2023/01/06 06:06:14;;;;;;;0.43;0.43;;;16.20;55.10;;;;;;5065218;28;45432;-73
2023/01/06 06:08:41;;;;;;;0.65;0.50;;;16.20;55.10;;;;;;5064983;28;45597;-73
2023/01/06 06:11:10;;;;;;;0.40;0.40;;;16.20;55.10;;;;;;5065003;28;45405;-73
2023/01/06 06:13:37;;;;;;;0.40;0.40;;;16.20;55.20;;;;;;5065003;27;45260;-73
2023/01/06 06:16:05;;;;;;;0.40;0.40;;;16.20;55.20;;;;;;5065156;28;45280;-73
2023/01/06 06:18:32;;;;;;;0.50;0.50;;;16.20;55.20;;;;;;5064703;27;45441;-72
2023/01/06 06:21:01;;;;;;;0.63;0.50;;;16.10;55.20;;;;;;5064050;28;45208;-72
2023/01/06 06:23:28;;;;;;;0.50;0.50;;;16.10;55.20;;;;;;5064612;27;45360;-73
2023/01/06 06:25:55;;;;;;;0.40;0.40;;;16.10;55.30;;;;;;5064895;28;45517;-72
2023/01/06 06:28:23;;;;;;;0.35;0.35;;;16.10;55.30;;;;;;5064346;28;46699;-73
2023/01/06 06:30:50;;;;;;;0.40;0.40;;;16.10;55.30;;;;;;5064574;28;45182;-73
2023/01/06 06:33:17;;;;;;;0.50;0.50;;;16.10;55.30;;;;;;5064701;28;45444;-73
2023/01/06 06:35:44;;;;;;;0.38;0.38;;;16.10;55.40;;;;;;5064921;28;45291;-74
2023/01/06 06:38:11;;;;;;;0.30;0.30;;;16.10;55.40;;;;;;5064982;28;46363;-73
2023/01/06 06:40:37;;;;;;;0.30;0.30;;;16.10;55.40;;;;;;5064547;27;45214;-73
2023/01/06 06:43:04;;;;;;;0.30;0.30;;;16.00;55.40;;;;;;5064583;28;45133;-73
2023/01/06 06:45:32;;;;;;;0.32;0.32;;;16.00;55.40;;;;;;5065238;28;45178;-73
2023/01/06 06:47:59;;;;;;;0.47;0.47;;;16.00;55.40;;;;;;5064386;28;45243;-73
2023/01/06 06:50:26;;;;;;;0.40;0.40;;;16.00;55.40;;;;;;5064441;28;45291;-73
2023/01/06 06:52:55;;;;;;;0.40;0.30;;;16.00;55.50;;;;;;5064794;28;45225;-73
2023/01/06 06:55:21;;;;;;;0.45;0.45;;;16.00;55.50;;;;;;5064719;28;45407;-73
2023/01/06 06:57:48;;;;;;;0.45;0.40;;;16.00;55.50;;;;;;5064425;28;45331;-73
2023/01/06 07:00:16;;;;;;;0.50;0.45;;;16.00;55.50;;;;;;5064152;28;45385;-73
2023/01/06 07:02:47;;;;;;;0.30;0.30;;;16.00;55.30;;;;;;5061283;28;45228;-73
2023/01/06 07:05:14;;;;;;;0.70;0.70;;;16.10;55.20;;;;;;5063780;28;45394;-73
2023/01/06 07:07:40;;;;;;;0.40;0.40;;;16.20;55.00;;;;;;5063971;28;45236;-73
2023/01/06 07:10:08;;;;;;;0.40;0.40;;;16.20;54.90;;;;;;5063975;28;45354;-73
2023/01/06 07:12:35;;;;;;;0.95;0.47;;;16.20;54.80;;;;;;5064389;28;45262;-72
2023/01/06 07:15:02;;;;;;;0.40;0.40;;;16.30;54.70;;;;;;5064386;27;45138;-73
2023/01/06 07:17:28;;;;;;;0.30;0.30;;;16.30;54.60;;;;;;5064145;28;46430;-73
2023/01/06 07:19:56;;;;;;;0.30;0.30;;;16.30;54.50;;;;;;5063813;28;45300;-73
2023/01/06 07:22:23;;;;;;;1.45;0.40;;;16.30;54.40;;;;;;5064078;27;45222;-73
2023/01/06 07:24:50;;;;;;;0.45;0.45;;;16.30;54.40;;;;;;5064130;28;45391;-74
2023/01/06 07:27:17;;;;;;;0.55;0.50;;;16.30;54.40;;;;;;5063522;28;45216;-73
2023/01/06 07:29:44;;;;;;;1.65;0.50;;;16.30;54.40;;;;;;5063695;28;45277;-73
2023/01/06 07:32:10;;;;;;;0.60;0.60;;;16.30;54.40;;;;;;5063656;28;45228;-73
2023/01/06 07:34:37;;;;;;;0.43;0.43;;;16.30;54.40;;;;;;5061467;28;45276;-73
2023/01/06 07:37:05;;;;;;;0.50;0.50;;;16.30;54.40;;;;;;5063669;28;46657;-73
2023/01/06 07:39:32;;;;;;;0.40;0.40;;;16.30;54.50;;;;;;5063585;28;45253;-73
2023/01/06 07:41:59;;;;;;;0.47;0.47;;;16.30;54.50;;;;;;5063865;28;45354;-73
2023/01/06 07:44:26;;;;;;;0.50;0.40;;;16.30;54.50;;;;;;5063846;28;45415;-73
2023/01/06 07:46:52;;;;;;;0.50;0.50;;;16.30;54.60;;;;;;5063094;27;46390;-72
2023/01/06 07:49:19;;;;;;;0.40;0.40;;;16.20;55.10;;;;;;5063054;28;45161;-72
2023/01/06 07:51:46;;;;;;;0.40;0.40;;;16.20;54.60;;;;;;5063453;28;45266;-73
2023/01/06 07:54:14;;;;;;;0.30;0.30;;;16.20;54.60;;;;;;5063735;28;45473;-72
2023/01/06 07:56:42;;;;;;;0.60;0.60;;;16.20;54.70;;;;;;5063115;28;45370;-73
2023/01/06 07:59:09;;;;;;;0.40;0.40;;;16.20;54.70;;;;;;5063359;28;45163;-73
2023/01/06 08:01:35;;;;;;;0.40;0.40;;;16.20;54.70;;;;;;5063884;28;45226;-72
2023/01/06 08:04:02;;;;;;;0.63;0.63;;;16.20;54.80;;;;;;5063673;28;45137;-73
2023/01/06 08:06:29;;;;;;;0.40;0.32;;;16.20;54.80;;;;;;5063221;27;46719;-72
2023/01/06 08:08:56;;;;;;;0.40;0.40;;;16.20;54.80;;;;;;5063213;28;45293;-73
2023/01/06 08:11:24;;;;;;;0.40;0.40;;;16.20;54.90;;;;;;5063323;28;45305;-73
2023/01/06 08:13:51;;;;;;;0.70;0.50;;;16.20;54.90;;;;;;5064512;28;45101;-73
2023/01/06 08:16:18;;;;;;;0.50;0.50;;;16.20;54.90;;;;;;5066124;28;45471;-73
2023/01/06 08:18:44;;;;;;;0.50;0.50;;;16.20;54.90;;;;;;5066218;28;45386;-72
2023/01/06 08:21:11;;;;;;;0.40;0.40;;;16.10;55.00;;;;;;5066232;28;45246;-73
2023/01/06 08:23:38;;;;;;;0.38;0.38;;;16.10;55.00;;;;;;5066621;28;45351;-73
2023/01/06 08:26:06;;;;;;;0.50;0.50;;;16.10;55.00;;;;;;5066140;28;45274;-73
2023/01/06 08:28:34;;;;;;;0.40;0.40;;;16.10;55.00;;;;;;5066085;28;45191;-73
2023/01/06 08:31:01;;;;;;;0.35;0.30;;;16.10;55.00;;;;;;5065604;28;45294;-73
2023/01/06 08:33:27;;;;;;;0.43;0.43;;;16.10;55.10;;;;;;5066399;28;45317;-73
2023/01/06 08:35:58;;;;;;;0.60;0.60;;;16.10;55.10;;;;;;5066023;28;47272;-73
2023/01/06 08:38:25;;;;;;;0.70;0.70;;;16.10;55.70;;;;;;5065905;28;45245;-73
2023/01/06 08:40:52;;;;;;;0.40;0.40;;;16.10;55.10;;;;;;5066005;28;45276;-73
2023/01/06 08:43:19;;;;;;;0.70;0.40;;;16.10;55.10;;;;;;5066095;28;45531;-74
2023/01/06 08:45:47;;;;;;;0.60;0.60;;;16.10;55.10;;;;;;5065820;28;46385;-73
2023/01/06 08:48:14;;;;;;;0.40;0.38;;;16.20;55.20;;;;;;5065793;28;45074;-74
2023/01/06 08:50:41;;;;;;;0.45;0.45;;;16.10;55.20;;;;;;5066406;28;45333;-73
2023/01/06 08:53:08;;;;;;;0.65;0.50;;;16.20;55.20;;;;;;5066055;28;45302;-73
2023/01/06 08:55:37;;;;;;;0.40;0.40;;;16.20;55.20;;;;;;5065818;27;46656;-72
2023/01/06 08:58:04;;;;;;;0.57;0.57;;;16.20;55.20;;;;;;5065840;28;45261;-73
2023/01/06 09:00:31;;;;;;;0.50;0.50;;;16.20;55.30;;;;;;5065985;28;45328;-73
2023/01/06 09:02:59;;;;;;;0.40;0.40;;;16.10;55.20;;;;;;5066190;27;45356;-73
2023/01/06 09:05:26;;;;;;;0.38;0.38;;;16.20;55.30;;;;;;5065811;28;46354;-73
2023/01/06 09:07:53;;;;;;;0.50;0.50;;;16.20;55.90;;;;;;5065713;28;45203;-73
2023/01/06 09:10:20;;;;;;;0.98;0.70;;;16.20;55.30;;;;;;5065919;28;45290;-73
2023/01/06 09:12:47;;;;;;;0.40;0.40;;;16.20;55.30;;;;;;5065804;28;45360;-73
2023/01/06 09:15:14;;;;;;;0.55;0.55;;;16.20;55.30;;;;;;5064834;28;45477;-73
2023/01/06 09:17:41;;;;;;;0.50;0.50;;;16.20;55.30;;;;;;5065241;28;45117;-73
2023/01/06 09:20:10;;;;;;;0.98;0.50;;;16.20;55.30;;;;;;5065757;28;45325;-74
2023/01/06 09:22:36;;;;;;;0.55;0.55;;;16.20;55.30;;;;;;5065969;28;45389;-73
2023/01/06 09:25:04;;;;;;;0.30;0.30;;;16.20;55.40;;;;;;5065363;28;46594;-73
2023/01/06 09:27:30;;;;;;;1.23;0.60;;;16.20;55.40;;;;;;5065272;28;45195;-73
2023/01/06 09:29:57;;;;;;;0.50;0.50;;;16.20;55.40;;;;;;5065472;28;45161;-73
2023/01/06 09:32:24;;;;;;;0.60;0.60;;;16.20;55.40;;;;;;5065587;28;45331;-73
2023/01/06 09:34:51;;;;;;;0.57;0.57;;;16.20;55.40;;;;;;5065356;28;45272;-73
2023/01/06 09:37:19;;;;;;;0.60;0.60;;;16.20;55.40;;;;;;5065251;28;45271;-73
2023/01/06 09:39:46;;;;;;;0.60;0.60;;;16.20;55.40;;;;;;5065426;28;45229;-73
2023/01/06 09:42:30;;;;;;;1.25;0.50;;;16.20;55.40;;;;;;5065489;28;45306;-73
2023/01/06 09:44:58;;;;;;;1.92;0.68;;;16.20;55.40;;;;;;5065010;28;46580;-73
2023/01/06 09:47:26;;;;;;;0.50;0.50;;;16.20;55.40;;;;;;5065051;27;45336;-73
2023/01/06 09:49:56;;;;;;;0.50;0.50;;;16.20;55.40;;;;;;5065261;27;45442;-73
2023/01/06 09:52:27;;;;;;;0.55;0.55;;;16.20;55.40;;;;;;5065389;28;45343;-73
2023/01/06 09:54:55;;;;;;;0.95;0.50;;;16.20;55.40;;;;;;5064896;27;45713;-73
2023/01/06 09:57:25;;;;;;;0.80;0.55;;;16.20;55.40;;;;;;5065224;28;45267;-73
2023/01/06 09:59:54;;;;;;;0.50;0.50;;;16.30;55.50;;;;;;5065282;27;45297;-73
2023/01/06 10:02:22;;;;;;;0.55;0.50;;;16.20;55.40;;;;;;5065287;28;45476;-73
2023/01/06 10:04:49;;;;;;;0.40;0.40;;;16.30;55.50;;;;;;5064920;27;46651;-73
2023/01/06 10:07:19;;;;;;;0.50;0.50;;;16.30;55.50;;;;;;5064667;28;45311;-71
2023/01/06 10:09:53;;;;;;;0.50;0.50;;;16.30;55.50;;;;;;5064365;28;45226;-73
2023/01/06 10:12:27;;;;;;;1.35;0.60;;;16.30;55.50;;;;;;5064148;28;45394;-73
2023/01/06 10:14:58;;;;;;;1.23;0.50;;;16.30;55.60;;;;;;5064216;28;46366;-72
2023/01/06 10:17:46;;;;;;;1.27;0.60;;;16.30;55.60;;;;;;5064442;28;45231;-73
2023/01/06 10:20:32;;;;;;;0.88;0.40;;;16.30;55.60;;;;;;5064451;28;45319;-72
2023/01/06 10:23:02;;;;;;;1.77;0.57;;;16.30;55.60;;;;;;5065088;28;45283;-75
2023/01/06 10:25:31;;;;;;;2.55;0.63;;;16.30;55.60;;;;;;5064529;27;46733;-73
2023/01/06 10:28:01;;;;;;;1.20;0.70;;;16.30;55.60;;;;;;5063921;27;45411;-74
2023/01/06 10:30:37;;;;;;;3.00;0.70;;;16.30;55.60;;;;;;5064425;28;45115;-73
2023/01/06 10:33:04;;;;;;;1.45;0.70;;;16.40;55.60;;;;;;5064375;27;45310;-75
2023/01/06 10:35:31;;;;;;;0.82;0.70;;;16.40;55.60;;;;;;5064043;27;46639;-72
2023/01/06 10:37:58;;;;;;;1.85;0.68;;;16.40;55.70;;;;;;5063214;28;45320;-72
2023/01/06 10:40:26;;;;;;;1.73;0.50;;;16.40;55.70;;;;;;5064244;28;45246;-73
2023/01/06 10:42:56;;;;;;;1.45;0.73;;;16.40;55.80;;;;;;5064226;28;45129;-72
2023/01/06 10:45:23;;;;;;;2.72;0.50;;;16.40;55.70;;;;;;5064063;28;45556;-72
2023/01/06 10:47:51;;;;;;;1.17;1.02;;;16.40;55.80;;;;;;5063979;28;45199;-74
2023/01/06 10:50:18;;;;;;;1.38;0.60;;;16.40;55.80;;;;;;5064477;28;45272;-73
2023/01/06 10:52:45;;;;;;;0.63;0.63;;;16.40;55.70;;;;;;5064373;27;45496;-73
2023/01/06 10:55:22;;;;;;;1.70;0.70;;;16.50;55.60;;;;;;5064189;28;45443;-74
2023/01/06 10:57:49;;;;;;;1.10;0.70;;;16.70;55.40;;;;;;5064112;28;45242;-73
2023/01/06 11:00:21;;;;;;;0.70;0.60;;;16.90;54.90;;;;;;5064020;28;45235;-73
2023/01/06 11:02:49;;;;;;;1.20;0.60;;;17.10;55.10;;;;;;5064177;28;45280;-73
2023/01/06 11:05:16;;;;;;;0.73;0.73;;;17.20;54.20;;;;;;5063949;28;46784;-73
2023/01/06 11:07:52;;;;;;;1.55;0.80;;;17.30;54.00;;;;;;5064255;28;45286;-72
2023/01/06 11:10:34;;;;;;;1.17;0.70;;;17.40;53.70;;;;;;5064215;28;45159;-73
2023/01/06 11:13:02;;;;;;;1.00;0.90;;;17.50;53.50;;;;;;5064129;27;45395;-73
2023/01/06 11:15:35;;;;;;;0.55;0.50;;;17.60;53.90;;;;;;5064087;27;46415;-72
2023/01/06 11:18:03;;;;;;;0.55;0.55;;;17.60;53.20;;;;;;5063982;27;45185;-76
2023/01/06 11:20:31;;;;;;;5.15;0.70;;;17.80;53.10;;;;;;5063952;27;45153;-74
2023/01/06 11:23:12;;;;;;;0.50;0.50;;;17.80;53.10;;;;;;5064036;27;45360;-75
2023/01/06 11:25:39;;;;;;;2.25;0.77;;;17.90;52.90;;;;;;5057816;27;45293;-75
2023/01/06 11:28:13;;;;;;;8.13;1.10;;;18.00;53.00;;;;;;5043548;28;45419;-73
2023/01/06 11:30:46;;;;;;;1.95;0.63;;;18.10;52.90;;;;;;5044045;28;45145;-75
2023/01/06 11:33:15;;;;;;;0.70;0.70;;;18.20;52.70;;;;;;5043971;28;45277;-75
2023/01/06 11:35:42;;;;;;;2.58;0.77;;;18.20;52.60;;;;;;5043701;28;46925;-74
2023/01/06 11:38:12;;;;;;;5.55;0.90;;;18.30;52.70;;;;;;5040195;28;45260;-74
2023/01/06 11:40:38;;;;;;;1.67;0.80;;;18.40;52.70;;;;;;5043775;28;45197;-75
2023/01/06 11:43:07;;;;;;;1.00;0.70;;;18.40;52.70;;;;;;5043796;28;45310;-74
2023/01/06 11:45:35;;;;;;;3.05;0.70;;;18.50;52.80;;;;;;5043393;28;45289;-73
2023/01/06 11:48:04;;;;;;;0.80;0.80;;;18.50;52.70;;;;;;5041956;28;45343;-73
2023/01/06 11:50:31;;;;;;;2.72;0.68;;;18.50;52.50;;;;;;5043567;28;45299;-73
2023/01/06 11:52:58;;;;;;;1.63;0.70;;;18.60;52.40;;;;;;5043393;28;45305;-74
2023/01/06 11:55:26;;;;;;;0.80;0.63;;;18.60;52.20;;;;;;5043112;28;47253;-74
2023/01/06 11:57:56;;;;;;;0.60;0.60;;;18.70;52.40;;;;;;5043237;27;45207;-74
2023/01/06 12:00:30;;;;;;;1.17;0.50;;;18.70;52.20;;;;;;5043404;28;45281;-74
2023/01/06 12:03:03;;;;;;;0.52;0.52;;;18.70;52.00;;;;;;5043547;27;45653;-76
2023/01/06 12:05:35;;;;;;;3.38;0.45;;;18.80;51.80;;;;;;5043047;28;46367;-74
2023/01/06 12:08:03;;;;;;;2.55;1.10;;;18.80;51.70;;;;;;5044976;27;45268;-75
2023/01/06 12:10:32;;;;;;;3.92;0.93;;;18.80;52.20;;;;;;5044169;27;45149;-76
2023/01/06 12:12:58;;;;;;;3.90;0.80;;;18.80;52.30;;;;;;5043648;28;45562;-75
2023/01/06 12:15:26;;;;;;;2.75;0.70;;;18.70;52.40;;;;;;5043167;28;46405;-75
2023/01/06 12:17:54;;;;;;;3.08;1.40;;;18.80;52.50;;;;;;5043910;28;45203;-75
2023/01/06 12:20:23;;;;;;;0.80;0.50;;;18.70;52.50;;;;;;5079734;27;45643;-75
2023/01/06 12:22:52;;;;;;;1.15;0.60;;;18.80;52.10;;;;;;5075268;27;45387;-75
2023/01/06 12:25:20;;;;;;;3.33;0.50;;;18.90;52.00;;;;;;5076945;27;46606;-77
2023/01/06 12:27:49;;;;;;;0.50;0.50;;;19.00;52.00;;;;;;5068657;27;45268;-74
2023/01/06 12:30:18;;;;;;;0.63;0.50;;;19.10;51.60;;;;;;5070822;27;45426;-74
2023/01/06 12:32:47;;;;;;;1.25;0.65;;;19.20;51.50;;;;;;5055183;28;45413;-76
2023/01/06 12:35:17;;;;;;;0.88;0.50;;;19.30;51.70;;;;;;5082349;27;45561;-76
2023/01/06 12:37:46;;;;;;;1.30;0.70;;;19.30;51.90;;;;;;5117914;27;45346;-74
2023/01/06 12:40:18;;;;;;;1.33;0.50;;;19.40;51.40;;;;;;5097013;27;45316;-76
2023/01/06 12:42:47;;;;;;;0.68;0.50;;;19.30;51.00;;;;;;5088163;27;45182;-76
2023/01/06 12:45:15;;;;;;;8.57;0.80;;;19.20;51.60;;;;;;5075155;27;46422;-75
2023/01/06 12:47:44;;;;;;;0.60;0.50;;;19.10;51.70;;;;;;5066176;27;45373;-77
2023/01/06 12:50:17;;;;;;;0.40;0.40;;;19.00;51.90;;;;;;5080515;27;45193;-76
2023/01/06 12:52:46;;;;;;;1.70;0.60;;;18.90;52.40;;;;;;5058722;27;45412;-74
2023/01/06 12:55:15;;;;;;;1.38;0.70;;;18.80;52.10;;;;;;5052521;27;46376;-74
2023/01/06 12:57:51;;;;;;;2.28;0.40;;;18.70;52.40;;;;;;5050620;28;45430;-74
2023/01/06 13:00:44;;;;;;;1.27;0.38;;;18.70;52.60;;;;;;5053827;28;45289;-73